Time;durP1;ratioP1;P1;durP2;ratioP2;P2;SDS_P1;SDS_P2;PMS_P1;PMS_P2;Temp;Humidity;BMP_temperature;BMP_pressure;BME280_temperature;BME280_humidity;BME280_pressure;Samples;Min_cycle;Max_cycle;Signal;HPM_P1;HPM_P2
2023/06/15 00:02:10;;;;;;;9.50;3.17;;;;;;;;;;5019983;28;20053;-71
2023/06/15 00:04:36;;;;;;;7.03;3.22;;;;;;;;;;5031585;28;20029;-71
2023/06/15 00:07:02;;;;;;;4.50;3.40;;;;;;;;;;5030959;28;20476;-71
2023/06/15 00:09:28;;;;;;;7.95;3.67;;;;;;;;;;5030202;28;20080;-71
2023/06/15 00:11:54;;;;;;;6.22;3.50;;;;;;;;;;5020291;28;20026;-71
2023/06/15 00:14:20;;;;;;;5.10;3.38;;;;;;;;;;5031145;28;20636;-71
2023/06/15 00:16:47;;;;;;;5.82;3.20;;;;;;;;;;5031464;28;20110;-71
2023/06/15 00:19:13;;;;;;;10.40;3.60;;;;;;;;;;5031817;28;20137;-71
2023/06/15 00:21:41;;;;;;;4.57;3.03;;;;;;;;;;5022506;28;20100;-71
2023/06/15 00:24:09;;;;;;;6.65;3.13;;;;;;;;;;5014329;28;20484;-71
2023/06/15 00:26:36;;;;;;;5.43;3.30;;;;;;;;;;5022088;28;20030;-71
2023/06/15 00:29:02;;;;;;;5.45;3.17;;;;;;;;;;5025023;28;20029;-71
2023/06/15 00:31:28;;;;;;;5.85;3.78;;;;;;;;;;5020836;28;20091;-71
2023/06/15 00:33:54;;;;;;;9.25;3.80;;;;;;;;;;5030206;28;20532;-71
2023/06/15 00:36:20;;;;;;;4.72;3.20;;;;;;;;;;5025204;28;20025;-71
2023/06/15 00:38:46;;;;;;;7.63;3.70;;;;;;;;;;5033861;28;20742;-71
2023/06/15 00:41:12;;;;;;;4.53;3.42;;;;;;;;;;5034933;28;20065;-71
2023/06/15 00:43:38;;;;;;;6.30;3.22;;;;;;;;;;5034948;28;20033;-71
2023/06/15 00:46:05;;;;;;;8.00;3.63;;;;;;;;;;5034941;28;20032;-71
2023/06/15 00:48:31;;;;;;;10.40;3.47;;;;;;;;;;5034843;28;20021;-71
2023/06/15 00:50:57;;;;;;;7.78;3.40;;;;;;;;;;5033801;28;20029;-71
2023/06/15 00:53:24;;;;;;;7.93;3.85;;;;;;;;;;5034939;28;20068;-71
2023/06/15 00:55:50;;;;;;;6.93;3.88;;;;;;;;;;5033432;28;20018;-71
2023/06/15 00:58:17;;;;;;;4.50;3.42;;;;;;;;;;5034616;28;20018;-71
2023/06/15 01:00:48;;;;;;;7.60;3.75;;;;;;;;;;5034649;28;20026;-71
2023/06/15 01:03:15;;;;;;;5.53;3.28;;;;;;;;;;5034742;28;20018;-71
2023/06/15 01:05:44;;;;;;;6.05;3.53;;;;;;;;;;5023659;28;20029;-71
2023/06/15 01:08:11;;;;;;;6.43;4.32;;;;;;;;;;5033677;28;20018;-71
2023/06/15 01:10:38;;;;;;;4.43;3.53;;;;;;;;;;5034624;28;20065;-71
2023/06/15 01:13:07;;;;;;;5.93;4.03;;;;;;;;;;5034367;28;20511;-71
2023/06/15 01:15:33;;;;;;;5.82;3.35;;;;;;;;;;5034750;28;20021;-71
2023/06/15 01:18:02;;;;;;;4.70;3.58;;;;;;;;;;5034524;28;20400;-71
2023/06/15 01:20:48;;;;;;;5.63;3.50;;;;;;;;;;5034404;28;20674;-71
2023/06/15 01:23:27;;;;;;;3.90;3.38;;;;;;;;;;5023766;28;20029;-71
2023/06/15 01:26:05;;;;;;;4.10;3.70;;;;;;;;;;5034322;28;20130;-71
2023/06/15 01:28:32;;;;;;;5.30;3.70;;;;;;;;;;5034579;28;20068;-71
2023/06/15 01:30:58;;;;;;;5.72;4.13;;;;;;;;;;5034315;28;20032;-71
2023/06/15 01:33:25;;;;;;;9.00;3.78;;;;;;;;;;5034294;28;20029;-71
2023/06/15 01:35:51;;;;;;;8.60;4.50;;;;;;;;;;5027989;28;20025;-71
2023/06/15 01:38:18;;;;;;;7.30;4.00;;;;;;;;;;5014242;28;20022;-71
2023/06/15 01:40:47;;;;;;;5.50;3.35;;;;;;;;;;5019008;28;20081;-71
2023/06/15 01:43:15;;;;;;;9.65;4.45;;;;;;;;;;5033704;28;20029;-71
2023/06/15 01:45:42;;;;;;;7.70;3.72;;;;;;;;;;5033125;28;20021;-71
2023/06/15 01:48:08;;;;;;;5.45;3.50;;;;;;;;;;5033668;28;20544;-71
2023/06/15 01:50:35;;;;;;;9.45;4.03;;;;;;;;;;5020630;28;20025;-71
2023/06/15 01:53:01;;;;;;;9.40;5.45;;;;;;;;;;5033816;28;20036;-71
2023/06/15 01:55:27;;;;;;;8.07;3.80;;;;;;;;;;5033623;28;20024;-71
2023/06/15 01:57:54;;;;;;;5.13;4.13;;;;;;;;;;5033285;28;20026;-71
2023/06/15 02:00:22;;;;;;;6.88;3.65;;;;;;;;;;5021299;28;20025;-71
2023/06/15 02:02:48;;;;;;;6.45;4.03;;;;;;;;;;5020263;28;20041;-71
2023/06/15 02:05:14;;;;;;;5.80;3.83;;;;;;;;;;5033359;28;20036;-71
2023/06/15 02:07:40;;;;;;;7.13;3.88;;;;;;;;;;5020743;28;20030;-71
2023/06/15 02:10:08;;;;;;;6.38;4.28;;;;;;;;;;5032639;28;20021;-71
2023/06/15 02:12:34;;;;;;;5.25;4.07;;;;;;;;;;5033429;28;20021;-71
2023/06/15 02:15:03;;;;;;;6.43;4.43;;;;;;;;;;5032394;28;20036;-71
2023/06/15 02:17:33;;;;;;;6.25;4.35;;;;;;;;;;5033367;28;20033;-71
2023/06/15 02:19:59;;;;;;;;;;;;;;;;;;5033926;28;20020;-71
2023/06/15 02:22:25;;;;;;;6.88;4.40;;;;;;;;;;5033313;28;20276;-71
2023/06/15 02:24:51;;;;;;;5.72;4.00;;;;;;;;;;5033322;28;20021;-71
2023/06/15 02:27:17;;;;;;;5.05;3.70;;;;;;;;;;5033396;28;20085;-72
2023/06/15 02:29:43;;;;;;;5.35;4.20;;;;;;;;;;5028728;28;20057;-71
2023/06/15 02:32:09;;;;;;;7.90;4.90;;;;;;;;;;5024615;28;20030;-71
2023/06/15 02:34:36;;;;;;;5.55;4.55;;;;;;;;;;5033293;28;20441;-71
2023/06/15 02:37:02;;;;;;;8.43;5.00;;;;;;;;;;5021601;28;20053;-71
2023/06/15 02:39:28;;;;;;;6.30;4.65;;;;;;;;;;5030060;28;20054;-71
2023/06/15 02:41:54;;;;;;;6.10;4.75;;;;;;;;;;5020866;28;20465;-71
2023/06/15 02:44:21;;;;;;;6.82;5.00;;;;;;;;;;5023357;28;20460;-71
2023/06/15 02:46:47;;;;;;;7.28;5.15;;;;;;;;;;5032590;28;20022;-71
2023/06/15 02:49:18;;;;;;;9.93;5.20;;;;;;;;;;5033411;28;20079;-71
2023/06/15 02:51:44;;;;;;;9.10;5.40;;;;;;;;;;5019248;28;20056;-71
2023/06/15 02:54:12;;;;;;;6.53;4.78;;;;;;;;;;5032857;28;20068;-71
2023/06/15 02:56:41;;;;;;;9.80;5.38;;;;;;;;;;5027091;28;20029;-71
2023/06/15 02:59:13;;;;;;;9.50;5.28;;;;;;;;;;5012907;28;20026;-71
2023/06/15 03:01:39;;;;;;;7.88;5.07;;;;;;;;;;5032457;28;20025;-71
2023/06/15 03:04:09;;;;;;;6.75;5.28;;;;;;;;;;5019570;28;20117;-71
2023/06/15 03:06:36;;;;;;;;;;;;;;;;;;5032551;28;20024;-71
2023/06/15 03:09:02;;;;;;;7.63;5.03;;;;;;;;;;5032215;28;19992;-71
2023/06/15 03:11:28;;;;;;;8.93;4.90;;;;;;;;;;5032307;28;20168;-71
2023/06/15 03:13:54;;;;;;;8.05;5.18;;;;;;;;;;5032046;28;20112;-71
2023/06/15 03:16:20;;;;;;;7.85;5.63;;;;;;;;;;5032673;28;20538;-71
2023/06/15 03:18:47;;;;;;;9.65;5.93;;;;;;;;;;5032055;28;20056;-71
2023/06/15 03:21:14;;;;;;;7.70;5.40;;;;;;;;;;5013077;28;20449;-71
2023/06/15 03:23:42;;;;;;;8.13;5.43;;;;;;;;;;5025852;28;20652;-71
2023/06/15 03:26:10;;;;;;;7.00;5.60;;;;;;;;;;5032133;28;20091;-71
2023/06/15 03:28:38;;;;;;;9.52;5.88;;;;;;;;;;5031348;28;20014;-71
2023/06/15 03:31:07;;;;;;;8.27;6.20;;;;;;;;;;5020140;28;20049;-71
2023/06/15 03:33:33;;;;;;;9.57;5.83;;;;;;;;;;5031701;28;20030;-71
2023/06/15 03:36:01;;;;;;;8.32;6.10;;;;;;;;;;5031941;28;20033;-71
2023/06/15 03:38:27;;;;;;;7.75;6.05;;;;;;;;;;5029921;28;20567;-71
2023/06/15 03:40:53;;;;;;;10.88;6.20;;;;;;;;;;5011364;28;20050;-71
2023/06/15 03:43:19;;;;;;;8.35;6.38;;;;;;;;;;5027601;28;20025;-71
2023/06/15 03:45:45;;;;;;;9.23;6.63;;;;;;;;;;5031659;28;20049;-71
2023/06/15 03:48:11;;;;;;;11.18;6.07;;;;;;;;;;5031469;28;20053;-71
2023/06/15 03:50:37;;;;;;;7.68;6.15;;;;;;;;;;5031306;28;20025;-71
2023/06/15 03:53:03;;;;;;;8.32;6.00;;;;;;;;;;5031486;28;20041;-71
2023/06/15 03:55:30;;;;;;;8.93;6.07;;;;;;;;;;5031313;28;20422;-71
2023/06/15 03:57:56;;;;;;;8.63;5.93;;;;;;;;;;5031928;28;20512;-71
2023/06/15 04:00:22;;;;;;;7.45;5.45;;;;;;;;;;5031489;28;20026;-71
2023/06/15 04:02:47;;;;;;;7.97;6.47;;;;;;;;;;5028969;28;20628;-71
2023/06/15 04:05:14;;;;;;;11.30;5.95;;;;;;;;;;5020151;28;20084;-71
2023/06/15 04:07:40;;;;;;;9.27;6.63;;;;;;;;;;5031043;28;20033;-71
2023/06/15 04:10:08;;;;;;;9.35;6.40;;;;;;;;;;5029952;28;20031;-72
2023/06/15 04:12:34;;;;;;;8.77;6.63;;;;;;;;;;5031079;28;20018;-72
2023/06/15 04:15:00;;;;;;;7.13;5.38;;;;;;;;;;5031071;28;20049;-71
2023/06/15 04:17:26;;;;;;;9.68;6.28;;;;;;;;;;5031128;28;20056;-71
2023/06/15 04:19:52;;;;;;;9.65;5.90;;;;;;;;;;5031361;28;20049;-71
2023/06/15 04:22:18;;;;;;;8.15;5.72;;;;;;;;;;5031571;28;20030;-71
2023/06/15 04:24:44;;;;;;;9.02;6.22;;;;;;;;;;5031372;28;20092;-72
2023/06/15 04:27:13;;;;;;;10.60;6.35;;;;;;;;;;5029919;28;20030;-72
2023/06/15 04:29:45;;;;;;;7.93;5.97;;;;;;;;;;5030053;28;20076;-71
2023/06/15 04:32:11;;;;;;;7.82;5.78;;;;;;;;;;5027212;28;20045;-71
2023/06/15 04:34:37;;;;;;;8.30;5.55;;;;;;;;;;5021599;28;20024;-71
2023/06/15 04:37:06;;;;;;;9.82;5.72;;;;;;;;;;5017381;28;20024;-71
2023/06/15 04:39:32;;;;;;;7.70;5.13;;;;;;;;;;5019226;28;20057;-72
2023/06/15 04:41:59;;;;;;;6.75;5.15;;;;;;;;;;5025194;28;20022;-72
2023/06/15 04:44:25;;;;;;;8.55;5.13;;;;;;;;;;5024696;28;20361;-71
2023/06/15 04:46:51;;;;;;;9.07;5.30;;;;;;;;;;5013716;28;20022;-72
2023/06/15 04:49:17;;;;;;;7.32;5.15;;;;;;;;;;5024095;28;20100;-72
2023/06/15 04:51:43;;;;;;;7.22;5.25;;;;;;;;;;5019726;28;20025;-72
2023/06/15 04:54:09;;;;;;;4.95;4.45;;;;;;;;;;5030728;28;20040;-72
2023/06/15 04:56:36;;;;;;;8.00;5.03;;;;;;;;;;5022850;28;20014;-72
2023/06/15 04:59:02;;;;;;;7.63;4.80;;;;;;;;;;5022984;28;20072;-72
2023/06/15 05:01:28;;;;;;;6.70;4.93;;;;;;;;;;5031029;28;20432;-71
2023/06/15 05:03:54;;;;;;;7.28;5.43;;;;;;;;;;5030465;28;20026;-72
2023/06/15 05:06:20;;;;;;;5.65;5.05;;;;;;;;;;5030710;28;20033;-72
2023/06/15 05:08:46;;;;;;;6.70;5.28;;;;;;;;;;5030817;28;20037;-72
2023/06/15 05:11:12;;;;;;;7.28;4.93;;;;;;;;;;5024291;28;20030;-72
2023/06/15 05:13:38;;;;;;;5.97;5.38;;;;;;;;;;5012668;28;20038;-72
2023/06/15 05:16:04;;;;;;;8.40;5.25;;;;;;;;;;5030650;28;20075;-72
2023/06/15 05:18:30;;;;;;;7.82;5.35;;;;;;;;;;5031038;28;20112;-72
2023/06/15 05:20:57;;;;;;;6.13;5.15;;;;;;;;;;5045369;28;20120;-72
2023/06/15 05:23:23;;;;;;;6.18;5.25;;;;;;;;;;5034545;28;20503;-72
2023/06/15 05:25:49;;;;;;;7.18;4.82;;;;;;;;;;5034398;28;20021;-72
2023/06/15 05:28:17;;;;;;;8.32;4.82;;;;;;;;;;5033637;28;20022;-72
2023/06/15 05:30:43;;;;;;;6.25;4.93;;;;;;;;;;5033571;28;20428;-72
2023/06/15 05:33:09;;;;;;;7.22;5.53;;;;;;;;;;5033716;28;20156;-72
2023/06/15 05:35:35;;;;;;;5.10;4.50;;;;;;;;;;5033458;28;20360;-72
2023/06/15 05:38:01;;;;;;;7.40;4.97;;;;;;;;;;5034428;28;20033;-72
2023/06/15 05:40:27;;;;;;;6.32;4.50;;;;;;;;;;5032621;28;20051;-72
2023/06/15 05:42:54;;;;;;;7.32;5.10;;;;;;;;;;5021633;28;20461;-72
2023/06/15 05:45:20;;;;;;;6.15;5.15;;;;;;;;;;5020081;28;20047;-73
2023/06/15 05:47:46;;;;;;;5.32;4.72;;;;;;;;;;5034074;28;20022;-72
2023/06/15 05:50:12;;;;;;;7.57;5.45;;;;;;;;;;5033393;28;20030;-73
2023/06/15 05:52:38;;;;;;;5.95;5.03;;;;;;;;;;5034651;28;20034;-73
2023/06/15 05:55:05;;;;;;;5.93;4.70;;;;;;;;;;5034787;28;20071;-73
2023/06/15 05:57:31;;;;;;;6.53;4.68;;;;;;;;;;5034698;28;20420;-73
2023/06/15 05:59:57;;;;;;;6.22;4.78;;;;;;;;;;5034700;28;20025;-73
2023/06/15 06:02:23;;;;;;;7.13;5.03;;;;;;;;;;5034517;28;20358;-73
2023/06/15 06:04:49;;;;;;;5.80;4.15;;;;;;;;;;5034554;28;20025;-73
2023/06/15 06:07:15;;;;;;;6.35;4.38;;;;;;;;;;5034530;28;20440;-73
2023/06/15 06:09:41;;;;;;;8.00;4.97;;;;;;;;;;5034487;28;20056;-73
2023/06/15 06:12:08;;;;;;;5.55;4.55;;;;;;;;;;5034511;28;20061;-73
2023/06/15 06:14:34;;;;;;;5.03;4.15;;;;;;;;;;5034759;28;20479;-73
2023/06/15 06:17:00;;;;;;;7.18;4.07;;;;;;;;;;5034209;28;20030;-73
2023/06/15 06:19:26;;;;;;;6.13;4.22;;;;;;;;;;5033593;28;20052;-73
2023/06/15 06:21:52;;;;;;;7.32;4.28;;;;;;;;;;5034286;28;20029;-73
2023/06/15 06:24:18;;;;;;;6.57;4.10;;;;;;;;;;5034248;28;20029;-73
2023/06/15 06:26:44;;;;;;;6.50;4.22;;;;;;;;;;5034205;28;20029;-73
2023/06/15 06:29:10;;;;;;;8.60;3.72;;;;;;;;;;5034268;28;20057;-73
2023/06/15 06:31:36;;;;;;;6.32;4.35;;;;;;;;;;5033354;28;20060;-73
2023/06/15 06:34:02;;;;;;;7.20;4.32;;;;;;;;;;5033789;28;20409;-72
2023/06/15 06:36:28;;;;;;;4.68;4.28;;;;;;;;;;5033981;28;20028;-73
2023/06/15 06:38:55;;;;;;;8.63;4.80;;;;;;;;;;5034053;28;20025;-73
2023/06/15 06:41:21;;;;;;;6.40;4.72;;;;;;;;;;5033581;28;20054;-73
2023/06/15 06:43:47;;;;;;;4.30;3.83;;;;;;;;;;5033959;28;20025;-73
2023/06/15 06:46:14;;;;;;;5.97;4.20;;;;;;;;;;5033884;28;20029;-73
2023/06/15 06:48:40;;;;;;;6.05;4.43;;;;;;;;;;5033982;28;20028;-73
2023/06/15 06:51:06;;;;;;;4.50;4.10;;;;;;;;;;5033736;28;20076;-73
2023/06/15 06:53:32;;;;;;;7.30;4.05;;;;;;;;;;5033619;28;20033;-73
2023/06/15 06:55:58;;;;;;;6.13;4.03;;;;;;;;;;5033642;28;20028;-73
2023/06/15 06:58:24;;;;;;;5.95;4.10;;;;;;;;;;5033590;28;20087;-73
2023/06/15 07:00:51;;;;;;;6.90;4.18;;;;;;;;;;5033414;28;20025;-73
2023/06/15 07:03:17;;;;;;;8.73;3.70;;;;;;;;;;5033564;28;20026;-73
2023/06/15 07:05:43;;;;;;;4.40;3.58;;;;;;;;;;5033790;28;20032;-73
2023/06/15 07:08:10;;;;;;;6.45;3.63;;;;;;;;;;5033478;28;20057;-73
2023/06/15 07:10:36;;;;;;;5.85;3.60;;;;;;;;;;5033437;28;20034;-73
2023/06/15 07:13:02;;;;;;;5.28;3.65;;;;;;;;;;5033367;28;20072;-73
2023/06/15 07:15:31;;;;;;;5.82;3.65;;;;;;;;;;5033203;28;20053;-74
2023/06/15 07:17:57;;;;;;;5.25;3.65;;;;;;;;;;5033451;28;20032;-74
2023/06/15 07:20:23;;;;;;;4.97;3.72;;;;;;;;;;5033181;28;20025;-74
2023/06/15 07:22:49;;;;;;;6.03;3.83;;;;;;;;;;5033139;28;20034;-74
2023/06/15 07:25:15;;;;;;;4.20;3.60;;;;;;;;;;5033177;28;20541;-74
2023/06/15 07:27:41;;;;;;;7.28;3.60;;;;;;;;;;5033121;28;20053;-74
2023/06/15 07:30:07;;;;;;;6.68;3.60;;;;;;;;;;5033012;28;20560;-74
2023/06/15 07:32:33;;;;;;;6.93;3.08;;;;;;;;;;5032931;28;20018;-74
2023/06/15 07:34:59;;;;;;;5.90;3.70;;;;;;;;;;5032843;28;20447;-74
2023/06/15 07:37:25;;;;;;;3.72;3.30;;;;;;;;;;5032892;28;20030;-74
2023/06/15 07:39:52;;;;;;;4.43;3.35;;;;;;;;;;5032784;28;20149;-74
2023/06/15 07:42:18;;;;;;;6.97;3.50;;;;;;;;;;5032064;28;20022;-74
2023/06/15 07:44:44;;;;;;;4.47;3.55;;;;;;;;;;5032287;28;20428;-74
2023/06/15 07:47:10;;;;;;;5.60;3.15;;;;;;;;;;5032818;28;20029;-74
2023/06/15 07:49:36;;;;;;;8.02;3.53;;;;;;;;;;5032664;28;20028;-74
2023/06/15 07:52:02;;;;;;;4.30;3.25;;;;;;;;;;5032708;28;20064;-74
2023/06/15 07:54:28;;;;;;;4.65;3.67;;;;;;;;;;5032461;28;20057;-71
2023/06/15 07:56:55;;;;;;;6.32;3.00;;;;;;;;;;5032530;28;20384;-71
2023/06/15 07:59:21;;;;;;;4.22;3.25;;;;;;;;;;5032526;28;20036;-72
2023/06/15 08:01:47;;;;;;;4.68;2.85;;;;;;;;;;5032597;28;20105;-71
2023/06/15 08:04:14;;;;;;;5.88;3.42;;;;;;;;;;5032672;28;20033;-71
2023/06/15 08:06:40;;;;;;;3.25;2.95;;;;;;;;;;5032724;28;20025;-71
2023/06/15 08:09:07;;;;;;;5.10;3.33;;;;;;;;;;5032499;28;20033;-71
2023/06/15 08:11:34;;;;;;;5.00;3.50;;;;;;;;;;5032584;28;20025;-71
2023/06/15 08:14:00;;;;;;;4.43;3.10;;;;;;;;;;5032238;28;20025;-71
2023/06/15 08:16:26;;;;;;;4.57;3.13;;;;;;;;;;5032584;28;20021;-71
2023/06/15 08:18:52;;;;;;;4.30;2.95;;;;;;;;;;5032368;28;20368;-71
2023/06/15 08:21:18;;;;;;;4.18;2.92;;;;;;;;;;5032169;28;20032;-71
2023/06/15 08:23:44;;;;;;;5.18;2.75;;;;;;;;;;5032279;28;20029;-71
2023/06/15 08:26:10;;;;;;;4.38;2.80;;;;;;;;;;5032209;28;20029;-72
2023/06/15 08:28:36;;;;;;;3.67;2.75;;;;;;;;;;5032219;28;20025;-71
2023/06/15 08:31:03;;;;;;;6.63;3.20;;;;;;;;;;5032144;28;20100;-71
2023/06/15 08:33:29;;;;;;;4.35;2.90;;;;;;;;;;5032248;28;20045;-71
2023/06/15 08:35:56;;;;;;;4.78;3.15;;;;;;;;;;5032194;28;20449;-71
2023/06/15 08:38:22;;;;;;;4.93;3.25;;;;;;;;;;5032166;28;20088;-71
2023/06/15 08:40:51;;;;;;;3.45;2.70;;;;;;;;;;5030884;28;20049;-71
2023/06/15 08:43:17;;;;;;;3.85;2.55;;;;;;;;;;5032245;28;20140;-71
2023/06/15 08:45:44;;;;;;;6.60;3.20;;;;;;;;;;5032081;28;20032;-72
2023/06/15 08:48:14;;;;;;;5.80;3.00;;;;;;;;;;5032091;28;20028;-72
2023/06/15 08:50:41;;;;;;;4.85;2.88;;;;;;;;;;5032077;28;20026;-72
2023/06/15 08:53:08;;;;;;;5.97;2.83;;;;;;;;;;5047063;28;20052;-72
2023/06/15 08:55:35;;;;;;;3.45;2.47;;;;;;;;;;5034990;28;20673;-72
2023/06/15 08:58:01;;;;;;;2.92;2.60;;;;;;;;;;5035989;28;20029;-72
2023/06/15 09:00:27;;;;;;;3.20;2.90;;;;;;;;;;5035847;28;20079;-72
2023/06/15 09:02:56;;;;;;;4.03;2.90;;;;;;;;;;5035984;28;20060;-72
2023/06/15 09:05:22;;;;;;;3.30;2.47;;;;;;;;;;5035828;28;20026;-72
2023/06/15 09:07:48;;;;;;;4.80;2.78;;;;;;;;;;5035583;28;20017;-72
2023/06/15 09:10:17;;;;;;;3.08;2.45;;;;;;;;;;5035588;28;20030;-72
2023/06/15 09:12:51;;;;;;;5.20;2.97;;;;;;;;;;5035600;28;20029;-72
2023/06/15 09:15:20;;;;;;;2.70;2.50;;;;;;;;;;5035480;28;20104;-72
2023/06/15 09:17:54;;;;;;;4.40;3.05;;;;;;;;;;5035541;28;20053;-72
2023/06/15 09:20:21;;;;;;;2.85;2.58;;;;;;;;;;5035439;28;20036;-72
2023/06/15 09:22:47;;;;;;;3.35;2.65;;;;;;;;;;5035434;28;20037;-71
2023/06/15 09:25:14;;;;;;;3.55;2.60;;;;;;;;;;5035373;28;20014;-71
2023/06/15 09:27:40;;;;;;;3.60;2.75;;;;;;;;;;5035413;28;20056;-71
2023/06/15 09:30:07;;;;;;;5.05;2.75;;;;;;;;;;5035450;28;20041;-73
2023/06/15 09:32:33;;;;;;;5.10;3.17;;;;;;;;;;5035631;28;20400;-73
2023/06/15 09:34:59;;;;;;;5.13;3.20;;;;;;;;;;5035126;28;20037;-73
2023/06/15 09:37:27;;;;;;;5.15;3.15;;;;;;;;;;5035067;28;20026;-73
2023/06/15 09:39:53;;;;;;;5.00;2.60;;;;;;;;;;5034027;28;20060;-73
2023/06/15 09:42:26;;;;;;;3.58;2.83;;;;;;;;;;5035119;28;20097;-73
2023/06/15 09:45:05;;;;;;;4.38;2.67;;;;;;;;;;5034991;28;20360;-73
2023/06/15 09:47:31;;;;;;;;;;;;;;;;;;5035501;28;20022;-73
2023/06/15 09:49:58;;;;;;;3.72;2.65;;;;;;;;;;5034846;28;19915;-73
2023/06/15 09:52:25;;;;;;;3.35;2.50;;;;;;;;;;5034790;28;20021;-73
2023/06/15 09:54:52;;;;;;;3.08;2.78;;;;;;;;;;5035108;28;20038;-73
2023/06/15 09:57:19;;;;;;;3.67;2.70;;;;;;;;;;5034746;28;20025;-73
2023/06/15 09:59:45;;;;;;;4.60;3.13;;;;;;;;;;5034917;28;20100;-74
2023/06/15 10:02:12;;;;;;;3.45;2.97;;;;;;;;;;5034695;28;20108;-74
2023/06/15 10:04:40;;;;;;;4.90;2.83;;;;;;;;;;5034641;28;20061;-73
2023/06/15 10:07:07;;;;;;;3.42;2.65;;;;;;;;;;5033814;28;20041;-73
2023/06/15 10:09:49;;;;;;;3.85;2.80;;;;;;;;;;5034680;28;20076;-73
2023/06/15 10:12:16;;;;;;;4.50;2.80;;;;;;;;;;5034481;28;20026;-73
2023/06/15 10:14:54;;;;;;;3.30;2.15;;;;;;;;;;5034537;28;20025;-73
2023/06/15 10:17:24;;;;;;;3.42;2.65;;;;;;;;;;5034378;28;20036;-73
2023/06/15 10:19:51;;;;;;;3.45;2.65;;;;;;;;;;5034650;28;20594;-73
2023/06/15 10:22:17;;;;;;;3.05;2.50;;;;;;;;;;5034384;28;20049;-74
2023/06/15 10:24:47;;;;;;;7.30;2.78;;;;;;;;;;5034363;28;20481;-74
2023/06/15 10:27:15;;;;;;;3.50;2.63;;;;;;;;;;5033939;28;20024;-74
2023/06/15 10:30:01;;;;;;;3.22;2.45;;;;;;;;;;5033969;28;20388;-73
2023/06/15 10:32:45;;;;;;;2.78;2.58;;;;;;;;;;5034281;28;20108;-73
2023/06/15 10:35:30;;;;;;;4.50;2.63;;;;;;;;;;5033919;28;20163;-73
2023/06/15 10:38:07;;;;;;;2.92;2.35;;;;;;;;;;5033810;28;20033;-73
2023/06/15 10:40:36;;;;;;;2.80;2.60;;;;;;;;;;5033013;28;20053;-73
2023/06/15 10:43:02;;;;;;;5.65;2.38;;;;;;;;;;5033073;28;20026;-73
2023/06/15 10:45:29;;;;;;;2.38;2.17;;;;;;;;;;5032553;28;20421;-73
2023/06/15 10:47:57;;;;;;;4.32;2.10;;;;;;;;;;5032586;28;20017;-73
2023/06/15 10:50:23;;;;;;;4.57;2.63;;;;;;;;;;5032847;28;20132;-73
2023/06/15 10:52:50;;;;;;;2.80;2.53;;;;;;;;;;5032440;28;20423;-73
2023/06/15 10:55:17;;;;;;;3.42;2.50;;;;;;;;;;5032949;28;20026;-73
2023/06/15 10:57:43;;;;;;;3.33;2.50;;;;;;;;;;5033283;28;20045;-73
2023/06/15 11:00:10;;;;;;;2.38;2.05;;;;;;;;;;5033635;28;20072;-73
2023/06/15 11:02:37;;;;;;;2.95;2.30;;;;;;;;;;5033614;28;20113;-73
2023/06/15 11:05:03;;;;;;;4.45;2.50;;;;;;;;;;5033837;28;20025;-73
2023/06/15 11:07:30;;;;;;;2.53;2.33;;;;;;;;;;5033822;28;20026;-73
2023/06/15 11:10:00;;;;;;;3.00;2.40;;;;;;;;;;5033462;28;20104;-73
2023/06/15 11:12:36;;;;;;;4.03;2.53;;;;;;;;;;5032337;28;20385;-73
2023/06/15 11:15:03;;;;;;;5.10;2.30;;;;;;;;;;5033284;28;20033;-73
2023/06/15 11:17:30;;;;;;;2.95;2.25;;;;;;;;;;5033250;28;20044;-73
2023/06/15 11:19:56;;;;;;;6.60;2.80;;;;;;;;;;5033632;28;20075;-74
2023/06/15 11:22:28;;;;;;;4.72;2.75;;;;;;;;;;5033253;28;20032;-73
2023/06/15 11:24:55;;;;;;;3.28;2.55;;;;;;;;;;5033143;28;20384;-74
2023/06/15 11:27:22;;;;;;;4.32;3.20;;;;;;;;;;5033095;28;20033;-73
2023/06/15 11:29:55;;;;;;;3.38;2.70;;;;;;;;;;5033303;28;20163;-73
2023/06/15 11:32:25;;;;;;;3.13;2.60;;;;;;;;;;5033293;28;20361;-73
2023/06/15 11:34:55;;;;;;;8.32;2.38;;;;;;;;;;5033093;28;20037;-73
2023/06/15 11:37:22;;;;;;;4.88;2.50;;;;;;;;;;5032878;28;20029;-73
2023/06/15 11:39:48;;;;;;;4.47;2.35;;;;;;;;;;5031822;28;20049;-73
2023/06/15 11:42:15;;;;;;;3.00;2.10;;;;;;;;;;5032927;28;20029;-73
2023/06/15 11:44:41;;;;;;;3.63;2.50;;;;;;;;;;5032896;28;20030;-73
2023/06/15 11:47:12;;;;;;;5.25;2.28;;;;;;;;;;5030421;28;20088;-73
2023/06/15 11:49:38;;;;;;;3.67;2.53;;;;;;;;;;5013035;28;20030;-73
2023/06/15 11:52:04;;;;;;;5.53;2.10;;;;;;;;;;5016547;28;20101;-73
2023/06/15 11:54:30;;;;;;;7.57;2.55;;;;;;;;;;5032541;28;20030;-73
2023/06/15 11:56:57;;;;;;;5.35;2.25;;;;;;;;;;5032727;28;20083;-73
2023/06/15 11:59:24;;;;;;;3.75;2.53;;;;;;;;;;5032585;28;20033;-73
2023/06/15 12:01:51;;;;;;;1.98;1.30;;;;;;;;;;5032573;28;20357;-73
2023/06/15 12:04:17;;;;;;;2.25;2.05;;;;;;;;;;5032851;28;20014;-73
2023/06/15 12:06:44;;;;;;;4.53;2.35;;;;;;;;;;5032255;28;20037;-73
2023/06/15 12:09:11;;;;;;;3.30;1.40;;;;;;;;;;5032425;28;20025;-73
2023/06/15 12:11:37;;;;;;;4.05;2.15;;;;;;;;;;5032185;28;20013;-73
2023/06/15 12:14:06;;;;;;;6.35;2.40;;;;;;;;;;5032325;28;20025;-73
2023/06/15 12:16:32;;;;;;;2.47;2.05;;;;;;;;;;5032211;28;20380;-73
2023/06/15 12:18:58;;;;;;;2.33;2.13;;;;;;;;;;5032218;28;20021;-73
2023/06/15 12:21:28;;;;;;;2.85;2.38;;;;;;;;;;5031812;28;20547;-73
2023/06/15 12:23:55;;;;;;;2.35;2.03;;;;;;;;;;5032248;28;20034;-73
2023/06/15 12:26:21;;;;;;;3.10;1.92;;;;;;;;;;5032393;28;20056;-73
2023/06/15 12:28:51;;;;;;;3.25;2.50;;;;;;;;;;5031691;28;20053;-73
2023/06/15 12:31:17;;;;;;;3.20;2.20;;;;;;;;;;5021777;28;20049;-72
2023/06/15 12:33:43;;;;;;;3.47;1.70;;;;;;;;;;5012391;28;20045;-72
2023/06/15 12:36:13;;;;;;;3.28;2.47;;;;;;;;;;5012392;28;20037;-72
2023/06/15 12:38:42;;;;;;;2.97;2.60;;;;;;;;;;5012715;28;20697;-72
2023/06/15 12:41:15;;;;;;;2.92;2.13;;;;;;;;;;5011246;28;20049;-72
2023/06/15 12:43:41;;;;;;;6.65;2.42;;;;;;;;;;5012427;28;20108;-72
2023/06/15 12:46:07;;;;;;;5.03;2.05;;;;;;;;;;5025936;28;20026;-72
2023/06/15 12:48:33;;;;;;;2.85;2.17;;;;;;;;;;5031984;28;20028;-72
2023/06/15 12:51:00;;;;;;;3.40;2.50;;;;;;;;;;5047181;28;20025;-72
2023/06/15 12:53:26;;;;;;;3.40;2.40;;;;;;;;;;5031827;28;20033;-72
2023/06/15 12:55:52;;;;;;;3.00;2.70;;;;;;;;;;5031932;28;20041;-72
2023/06/15 12:58:18;;;;;;;2.95;2.15;;;;;;;;;;5031998;28;20022;-72
2023/06/15 13:00:44;;;;;;;3.22;1.95;;;;;;;;;;5031882;28;20021;-72
2023/06/15 13:03:11;;;;;;;4.93;2.63;;;;;;;;;;5031825;28;20038;-73
2023/06/15 13:05:37;;;;;;;2.50;1.80;;;;;;;;;;5031384;28;20032;-73
2023/06/15 13:08:04;;;;;;;2.50;1.92;;;;;;;;;;5031573;28;20014;-73
2023/06/15 13:10:31;;;;;;;4.47;2.20;;;;;;;;;;5031642;28;20056;-73
2023/06/15 13:12:57;;;;;;;2.45;1.90;;;;;;;;;;5031808;28;20053;-73
2023/06/15 13:15:28;;;;;;;1.65;1.50;;;;;;;;;;5031070;28;20104;-73
2023/06/15 13:17:55;;;;;;;3.28;2.22;;;;;;;;;;5031618;28;20072;-73
2023/06/15 13:20:21;;;;;;;3.00;2.70;;;;;;;;;;5031346;28;20033;-72
2023/06/15 13:22:47;;;;;;;2.75;2.38;;;;;;;;;;5031299;28;20065;-73
2023/06/15 13:25:13;;;;;;;3.97;2.33;;;;;;;;;;5031777;28;20022;-73
2023/06/15 13:27:39;;;;;;;2.88;1.70;;;;;;;;;;5031903;28;20037;-72
2023/06/15 13:30:09;;;;;;;3.08;2.30;;;;;;;;;;5031712;28;20100;-72
2023/06/15 13:32:37;;;;;;;3.28;2.38;;;;;;;;;;5031624;28;20109;-72
2023/06/15 13:35:03;;;;;;;3.42;1.77;;;;;;;;;;5031652;28;20104;-73
2023/06/15 13:37:29;;;;;;;4.97;2.35;;;;;;;;;;5031577;28;20030;-72
2023/06/15 13:39:55;;;;;;;2.10;1.90;;;;;;;;;;5031636;28;20018;-73
2023/06/15 13:42:21;;;;;;;2.15;1.92;;;;;;;;;;5033492;28;20107;-72
2023/06/15 13:44:47;;;;;;;2.38;2.17;;;;;;;;;;5035085;28;20404;-72
2023/06/15 13:47:17;;;;;;;3.88;2.50;;;;;;;;;;5034939;28;20026;-72
2023/06/15 13:49:43;;;;;;;2.67;2.17;;;;;;;;;;5035258;28;20040;-73
2023/06/15 13:52:10;;;;;;;2.90;2.60;;;;;;;;;;5034941;28;20026;-73
2023/06/15 13:54:36;;;;;;;33.00;5.60;;;;;;;;;;5034773;28;20051;-73
2023/06/15 13:57:02;;;;;;;3.10;1.92;;;;;;;;;;5034832;28;20031;-72
2023/06/15 13:59:30;;;;;;;4.63;2.90;;;;;;;;;;5034740;28;20105;-73
2023/06/15 14:01:56;;;;;;;3.25;2.45;;;;;;;;;;5034651;28;20464;-73
2023/06/15 14:04:22;;;;;;;5.18;2.47;;;;;;;;;;5034651;28;20033;-73
2023/06/15 14:06:48;;;;;;;2.30;2.10;;;;;;;;;;5033344;28;20113;-73
2023/06/15 14:09:15;;;;;;;3.88;2.60;;;;;;;;;;5034582;28;20574;-73
2023/06/15 14:11:40;;;;;;;2.83;2.33;;;;;;;;;;5033307;28;20460;-73
2023/06/15 14:14:06;;;;;;;3.88;2.10;;;;;;;;;;5034350;28;20040;-73
2023/06/15 14:16:32;;;;;;;3.08;2.30;;;;;;;;;;5034387;28;20388;-73
2023/06/15 14:18:58;;;;;;;3.38;2.60;;;;;;;;;;5034408;28;20108;-73
2023/06/15 14:21:25;;;;;;;2.65;2.20;;;;;;;;;;5034455;28;20541;-73
2023/06/15 14:23:51;;;;;;;3.47;2.17;;;;;;;;;;5034621;28;20044;-73
2023/06/15 14:26:17;;;;;;;2.28;2.08;;;;;;;;;;5034395;28;20112;-73
2023/06/15 14:28:43;;;;;;;2.95;2.65;;;;;;;;;;5034263;28;20112;-73
2023/06/15 14:31:09;;;;;;;2.33;2.13;;;;;;;;;;5033991;28;20029;-72
2023/06/15 14:33:35;;;;;;;4.15;2.58;;;;;;;;;;5033908;28;20457;-72
2023/06/15 14:36:01;;;;;;;3.90;2.60;;;;;;;;;;5034117;28;20043;-72
2023/06/15 14:38:28;;;;;;;3.45;2.90;;;;;;;;;;5034189;28;20468;-73
2023/06/15 14:41:01;;;;;;;2.95;2.65;;;;;;;;;;5033912;28;20049;-73
2023/06/15 14:43:27;;;;;;;4.63;2.25;;;;;;;;;;5033966;28;20056;-73